createdAt,value
2019-03-26T00:00:42.822Z,2.60
2019-03-26T00:03:12.505Z,2.55
2019-03-26T00:05:42.190Z,3.17
2019-03-26T00:08:11.890Z,3.25
2019-03-26T00:10:41.830Z,2.70
2019-03-26T00:13:11.470Z,3.25
2019-03-26T00:15:40.918Z,2.75
2019-03-26T00:18:10.750Z,3.02
2019-03-26T00:20:40.505Z,2.37
2019-03-26T00:23:10.153Z,2.90
2019-03-26T00:25:40.049Z,3.22
2019-03-26T00:28:10.186Z,2.87
2019-03-26T00:30:40.213Z,2.98
2019-03-26T00:33:09.667Z,2.75
2019-03-26T00:35:39.271Z,3.22
2019-03-26T00:38:10.023Z,2.70
2019-03-26T00:40:40.265Z,3.95
2019-03-26T00:43:10.071Z,2.60
2019-03-26T00:45:39.782Z,3.00
2019-03-26T00:48:09.462Z,3.45
2019-03-26T00:50:38.974Z,2.17
2019-03-26T00:53:08.483Z,3.20
2019-03-26T00:55:38.383Z,3.67
2019-03-26T00:58:07.909Z,2.42
2019-03-26T01:00:39.743Z,2.83
2019-03-26T01:03:09.937Z,3.35
2019-03-26T01:05:41.340Z,3.05
2019-03-26T01:08:11.258Z,3.05
2019-03-26T01:10:40.688Z,2.90
2019-03-26T01:13:11.069Z,3.00
2019-03-26T01:15:40.809Z,3.02
2019-03-26T01:18:10.437Z,2.92
2019-03-26T01:20:40.550Z,2.75
2019-03-26T01:23:10.101Z,2.83
2019-03-26T01:25:41.022Z,3.52
2019-03-26T01:28:10.539Z,2.98
2019-03-26T01:30:40.037Z,2.65
2019-03-26T01:33:09.975Z,2.87
2019-03-26T01:35:39.478Z,3.00
2019-03-26T01:38:08.969Z,3.02
2019-03-26T01:40:38.722Z,3.45
2019-03-26T01:43:08.367Z,3.08
2019-03-26T01:45:38.095Z,2.90
2019-03-26T01:48:08.630Z,3.10
2019-03-26T01:50:38.333Z,3.30
2019-03-26T01:53:07.829Z,2.95
2019-03-26T01:55:37.556Z,2.90
2019-03-26T01:58:07.007Z,3.02
2019-03-26T02:00:36.817Z,3.27
2019-03-26T02:03:06.663Z,3.10
2019-03-26T02:05:37.390Z,2.45
2019-03-26T02:08:07.102Z,3.92
2019-03-26T02:10:36.676Z,3.02
2019-03-26T02:13:06.314Z,2.80
2019-03-26T02:15:36.921Z,3.08
2019-03-26T02:18:07.033Z,3.37
2019-03-26T02:20:36.751Z,3.27
2019-03-26T02:23:06.444Z,4.03
2019-03-26T02:25:36.083Z,3.33
2019-03-26T02:28:05.615Z,3.35
2019-03-26T02:30:36.308Z,3.15
2019-03-26T02:33:06.054Z,3.00
2019-03-26T02:35:35.738Z,3.15
2019-03-26T02:38:05.498Z,3.45
2019-03-26T02:40:35.129Z,3.62
2019-03-26T02:43:04.721Z,3.87
2019-03-26T02:45:34.707Z,3.08
2019-03-26T02:48:05.041Z,3.42
2019-03-26T02:50:34.428Z,3.15
2019-03-26T02:53:03.818Z,3.45
2019-03-26T02:55:34.025Z,3.83
2019-03-26T02:58:03.930Z,4.15
2019-03-26T03:00:34.023Z,4.10
2019-03-26T03:03:03.820Z,3.40
2019-03-26T03:05:35.478Z,3.50
2019-03-26T03:08:04.878Z,3.95
2019-03-26T03:10:34.504Z,4.05
2019-03-26T03:13:04.205Z,3.90
2019-03-26T03:15:33.725Z,4.37
2019-03-26T03:18:03.519Z,4.17
2019-03-26T03:20:33.366Z,2.90
2019-03-26T03:23:03.036Z,4.20
2019-03-26T03:25:32.766Z,3.70
2019-03-26T03:28:02.506Z,3.52
2019-03-26T03:30:32.163Z,2.80
2019-03-26T03:33:01.549Z,3.55
2019-03-26T03:35:31.134Z,3.25
2019-03-26T03:38:00.740Z,4.05
2019-03-26T03:40:30.453Z,2.87
2019-03-26T03:43:00.308Z,2.87
2019-03-26T03:45:30.346Z,3.22
2019-03-26T03:48:00.705Z,3.60
2019-03-26T03:50:31.595Z,4.03
2019-03-26T03:53:01.971Z,3.75
2019-03-26T03:55:32.459Z,3.72
2019-03-26T03:58:02.639Z,3.60
2019-03-26T04:00:38.022Z,3.05
2019-03-26T04:03:08.962Z,3.62
2019-03-26T04:05:38.450Z,4.00
2019-03-26T04:08:07.960Z,3.45
2019-03-26T04:10:37.474Z,4.03
2019-03-26T04:13:07.049Z,3.50
2019-03-26T04:15:36.805Z,3.10
2019-03-26T04:18:06.497Z,3.45
2019-03-26T04:20:35.952Z,3.90
2019-03-26T04:23:05.790Z,4.87
2019-03-26T04:25:35.349Z,3.52
2019-03-26T04:28:04.796Z,4.05
2019-03-26T04:30:34.513Z,4.12
2019-03-26T04:33:03.937Z,3.83
2019-03-26T04:35:33.382Z,4.17
2019-03-26T04:38:02.823Z,4.95
2019-03-26T04:40:32.603Z,3.50
2019-03-26T04:43:02.814Z,3.95
2019-03-26T04:45:32.248Z,3.85
2019-03-26T04:48:01.893Z,4.70
2019-03-26T04:50:31.618Z,4.12
2019-03-26T04:53:01.357Z,4.35
2019-03-26T04:55:31.701Z,4.10
2019-03-26T04:58:01.322Z,4.35
2019-03-26T05:00:30.872Z,4.25
2019-03-26T05:03:00.594Z,4.08
2019-03-26T05:05:30.298Z,3.90
2019-03-26T05:07:59.982Z,4.65
2019-03-26T05:10:29.446Z,4.67
2019-03-26T05:12:58.979Z,4.37
2019-03-26T05:15:28.410Z,3.70
2019-03-26T05:17:58.052Z,4.45
2019-03-26T05:20:27.473Z,3.80
2019-03-26T05:22:57.013Z,3.50
2019-03-26T05:25:26.451Z,3.87
2019-03-26T05:27:56.001Z,3.92
2019-03-26T05:30:25.696Z,4.12
2019-03-26T05:32:55.231Z,3.98
2019-03-26T05:35:24.971Z,3.52
2019-03-26T05:37:54.615Z,3.40
2019-03-26T05:40:24.355Z,3.70
2019-03-26T05:42:54.680Z,4.20
2019-03-26T05:45:24.397Z,3.62
2019-03-26T05:47:54.326Z,3.50
2019-03-26T05:50:25.022Z,4.22
2019-03-26T05:52:54.980Z,3.83
2019-03-26T05:55:24.642Z,4.70
2019-03-26T05:57:54.192Z,4.83
2019-03-26T06:00:25.295Z,5.08
2019-03-26T06:02:55.022Z,4.28
2019-03-26T06:05:24.686Z,4.17
2019-03-26T06:07:54.414Z,4.47
2019-03-26T06:10:23.882Z,4.22
2019-03-26T06:12:54.655Z,4.25
2019-03-26T06:15:24.387Z,4.37
2019-03-26T06:17:53.769Z,3.77
2019-03-26T06:20:23.182Z,5.60
2019-03-26T06:22:52.635Z,6.25
2019-03-26T06:25:22.363Z,5.60
2019-03-26T06:27:51.818Z,4.75
2019-03-26T06:30:21.283Z,4.65
2019-03-26T06:32:50.907Z,5.53
2019-03-26T06:35:20.548Z,5.28
2019-03-26T06:37:50.693Z,5.00
2019-03-26T06:40:20.496Z,3.77
2019-03-26T06:42:50.169Z,4.12
2019-03-26T06:45:21.060Z,4.45
2019-03-26T06:47:50.520Z,4.50
2019-03-26T06:50:21.082Z,4.42
2019-03-26T06:52:50.920Z,4.17
2019-03-26T06:55:20.752Z,5.15
2019-03-26T06:57:50.483Z,4.62
2019-03-26T07:00:30.947Z,4.87
2019-03-26T07:03:01.808Z,5.22
2019-03-26T07:05:31.382Z,4.83
2019-03-26T07:08:00.890Z,4.17
2019-03-26T07:10:30.748Z,4.30
2019-03-26T07:13:00.848Z,4.08
2019-03-26T07:15:30.450Z,4.85
2019-03-26T07:18:00.390Z,4.92
2019-03-26T07:20:30.193Z,4.53
2019-03-26T07:22:59.559Z,3.70
2019-03-26T07:25:29.016Z,3.92
2019-03-26T07:27:58.391Z,4.33
2019-03-26T07:30:37.706Z,3.92
2019-03-26T07:33:08.004Z,3.73
2019-03-26T07:35:37.988Z,3.62
2019-03-26T07:38:08.216Z,3.72
2019-03-26T07:40:37.936Z,3.72
2019-03-26T07:43:07.724Z,3.40
2019-03-26T07:45:37.531Z,3.40
2019-03-26T07:48:07.890Z,3.85
2019-03-26T07:50:38.179Z,3.58
2019-03-26T07:53:08.176Z,3.62
2019-03-26T07:55:38.613Z,3.50
2019-03-26T07:58:08.618Z,3.25
2019-03-26T08:00:39.038Z,2.58
2019-03-26T08:03:08.597Z,3.25
2019-03-26T08:05:38.046Z,3.42
2019-03-26T08:08:08.661Z,3.20
2019-03-26T08:10:38.185Z,3.25
2019-03-26T08:13:08.153Z,3.40
2019-03-26T08:15:37.872Z,3.42
2019-03-26T08:18:07.506Z,4.22
2019-03-26T08:20:36.983Z,3.65
2019-03-26T08:23:06.692Z,3.15
2019-03-26T08:25:36.249Z,3.45
2019-03-26T08:28:06.002Z,4.22
2019-03-26T08:30:35.640Z,2.83
2019-03-26T08:33:05.451Z,2.80
2019-03-26T08:35:35.152Z,3.30
2019-03-26T08:38:12.276Z,3.47
2019-03-26T08:40:35.765Z,3.12
2019-03-26T08:43:05.206Z,3.00
2019-03-26T08:45:34.569Z,2.80
2019-03-26T08:48:04.756Z,3.08
2019-03-26T08:50:34.287Z,3.12
2019-03-26T08:53:04.011Z,3.52
2019-03-26T08:55:34.170Z,2.72
2019-03-26T08:58:03.869Z,2.10
2019-03-26T09:00:33.499Z,3.35
2019-03-26T09:03:03.254Z,3.45
2019-03-26T09:05:33.011Z,3.22
2019-03-26T09:08:03.188Z,3.37
2019-03-26T09:10:33.040Z,3.55
2019-03-26T09:13:03.088Z,3.37
2019-03-26T09:15:33.015Z,3.33
2019-03-26T09:18:02.772Z,3.27
2019-03-26T09:20:32.197Z,2.95
2019-03-26T09:23:01.630Z,4.10
2019-03-26T09:25:31.280Z,2.87
2019-03-26T09:28:01.107Z,2.80
2019-03-26T09:30:30.677Z,3.90
2019-03-26T09:33:00.427Z,3.95
2019-03-26T09:35:29.857Z,3.27
2019-03-26T09:37:59.235Z,3.60
2019-03-26T09:40:28.667Z,4.25
2019-03-26T09:42:58.132Z,3.47
2019-03-26T09:45:27.861Z,4.70
2019-03-26T09:47:57.487Z,2.80
2019-03-26T09:50:32.370Z,3.77
2019-03-26T09:53:02.232Z,2.98
2019-03-26T09:55:31.947Z,3.92
2019-03-26T09:58:02.239Z,2.95
2019-03-26T10:00:31.777Z,3.33
2019-03-26T10:03:01.265Z,3.65
2019-03-26T10:05:30.701Z,3.75
2019-03-26T10:08:00.359Z,2.67
2019-03-26T10:10:30.015Z,2.58
2019-03-26T10:12:59.666Z,3.25
2019-03-26T10:15:29.394Z,2.47
2019-03-26T10:17:59.242Z,2.65
2019-03-26T10:20:29.028Z,2.55
2019-03-26T10:22:58.963Z,2.90
2019-03-26T10:25:28.573Z,3.10
2019-03-26T10:27:58.490Z,3.12
2019-03-26T10:30:34.018Z,3.27
2019-03-26T10:33:04.425Z,3.42
2019-03-26T10:35:34.265Z,3.02
2019-03-26T10:38:04.821Z,2.85
2019-03-26T10:40:37.366Z,3.55
2019-03-26T10:43:06.940Z,2.95
2019-03-26T10:45:37.244Z,4.20
2019-03-26T10:58:49.063Z,3.30
2019-03-26T11:01:19.126Z,3.42
2019-03-26T11:03:48.656Z,3.85
2019-03-26T11:06:18.602Z,3.90
2019-03-26T11:08:48.245Z,3.67
2019-03-26T11:11:17.784Z,3.58
2019-03-26T11:13:47.433Z,3.72
2019-03-26T11:16:16.969Z,3.55
2019-03-26T11:18:46.708Z,3.85
2019-03-26T11:21:16.141Z,3.90
2019-03-26T11:23:45.640Z,3.62
2019-03-26T11:26:15.394Z,3.72
2019-03-26T11:28:44.901Z,3.50
2019-03-26T11:31:14.858Z,3.40
2019-03-26T11:33:44.492Z,3.58
2019-03-26T11:36:13.995Z,3.62
2019-03-26T11:38:44.644Z,3.27
2019-03-26T11:41:14.086Z,3.47
2019-03-26T11:43:43.791Z,3.52
2019-03-26T11:46:13.701Z,4.30
2019-03-26T11:48:43.340Z,4.15
2019-03-26T11:51:13.762Z,4.40
2019-03-26T11:53:43.475Z,4.22
2019-03-26T11:56:14.057Z,4.10
2019-03-26T11:58:43.691Z,4.08
2019-03-26T12:01:13.594Z,7.22
2019-03-26T12:03:43.647Z,4.60
2019-03-26T12:06:13.175Z,4.08
2019-03-26T12:08:42.643Z,13.10
2019-03-26T12:11:12.385Z,7.10
2019-03-26T12:13:41.815Z,4.65
2019-03-26T12:16:11.261Z,3.52
2019-03-26T12:18:40.636Z,4.25
2019-03-26T12:21:10.024Z,4.25
2019-03-26T12:23:39.660Z,3.65
2019-03-26T12:26:09.119Z,3.62
2019-03-26T12:28:38.605Z,3.20
2019-03-26T12:31:08.186Z,2.85
2019-03-26T12:33:37.725Z,3.50
2019-03-26T12:36:07.083Z,3.80
2019-03-26T12:38:36.726Z,3.92
2019-03-26T12:41:06.735Z,4.08
2019-03-26T12:43:36.369Z,3.30
2019-03-26T12:46:06.011Z,4.05
2019-03-26T12:48:36.355Z,3.52
2019-03-26T12:51:05.815Z,4.47
2019-03-26T12:53:35.255Z,3.60
2019-03-26T12:56:05.699Z,3.30
2019-03-26T12:58:36.672Z,3.50
2019-03-26T13:01:06.699Z,3.02
2019-03-26T13:03:36.666Z,2.92
2019-03-26T13:06:06.693Z,3.47
2019-03-26T13:08:36.410Z,2.92
2019-03-26T13:11:06.093Z,3.33
2019-03-26T13:13:35.735Z,2.90
2019-03-26T13:16:05.445Z,3.40
2019-03-26T13:18:34.923Z,3.50
2019-03-26T13:21:04.940Z,3.72
2019-03-26T13:23:34.323Z,3.83
2019-03-26T13:26:03.873Z,3.35
2019-03-26T13:28:33.276Z,3.45
2019-03-26T13:31:03.085Z,3.98
2019-03-26T13:33:32.595Z,4.00
2019-03-26T13:36:02.399Z,4.30
2019-03-26T13:38:31.950Z,4.42
2019-03-26T13:41:01.427Z,3.47
2019-03-26T13:43:31.149Z,3.80
2019-03-26T13:46:00.955Z,4.45
2019-03-26T13:48:30.620Z,4.10
2019-03-26T13:51:00.330Z,4.35
2019-03-26T13:53:29.871Z,4.45
2019-03-26T13:55:59.735Z,4.30
2019-03-26T13:58:29.439Z,4.40
2019-03-26T14:00:59.578Z,4.47
2019-03-26T14:03:31.051Z,4.37
2019-03-26T14:06:00.601Z,3.90
2019-03-26T14:08:30.330Z,4.78
2019-03-26T14:10:59.825Z,4.47
2019-03-26T14:13:29.270Z,4.17
2019-03-26T14:15:59.610Z,4.72
2019-03-26T14:18:29.055Z,4.92
2019-03-26T14:20:58.895Z,5.05
2019-03-26T14:23:28.785Z,5.15
2019-03-26T14:25:58.566Z,6.17
2019-03-26T14:28:28.426Z,5.45
2019-03-26T14:30:58.082Z,6.03
2019-03-26T14:33:27.840Z,6.20
2019-03-26T14:35:57.314Z,6.35
2019-03-26T14:38:26.752Z,5.47
2019-03-26T14:40:56.535Z,4.78
2019-03-26T14:43:29.336Z,5.17
2019-03-26T14:45:59.215Z,5.65
2019-03-26T14:48:28.960Z,5.28
2019-03-26T14:50:59.031Z,5.85
2019-03-26T14:53:28.759Z,5.72
2019-03-26T14:55:59.725Z,5.60
2019-03-26T14:58:29.378Z,5.28
2019-03-26T15:00:59.964Z,4.60
2019-03-26T15:03:30.242Z,4.62
2019-03-26T15:06:00.003Z,4.83
2019-03-26T15:08:29.445Z,4.45
2019-03-26T15:11:08.084Z,3.80
2019-03-26T15:13:30.315Z,3.77
2019-03-26T15:15:59.833Z,3.95
2019-03-26T15:18:29.758Z,5.47
2019-03-26T15:20:59.626Z,5.22
2019-03-26T15:23:29.184Z,6.87
2019-03-26T15:25:58.882Z,7.00
2019-03-26T15:28:28.408Z,7.20
2019-03-26T15:30:57.844Z,6.70
2019-03-26T15:33:27.774Z,6.08
2019-03-26T15:35:57.149Z,6.58
2019-03-26T15:38:26.802Z,6.40
2019-03-26T15:40:56.643Z,6.40
2019-03-26T15:43:26.104Z,6.80
2019-03-26T15:45:55.930Z,5.37
2019-03-26T15:48:25.550Z,8.18
2019-03-26T15:50:55.090Z,7.35
2019-03-26T15:53:24.836Z,8.90
2019-03-26T15:55:54.517Z,8.68
2019-03-26T15:58:24.802Z,8.10
2019-03-26T16:00:54.331Z,7.95
2019-03-26T16:03:24.074Z,8.85
2019-03-26T16:05:53.791Z,10.75
2019-03-26T16:08:23.886Z,9.15
2019-03-26T16:10:53.603Z,9.63
2019-03-26T16:13:23.308Z,9.08
2019-03-26T16:15:53.014Z,9.08
2019-03-26T16:18:22.714Z,8.38
2019-03-26T16:20:52.476Z,8.25
2019-03-26T16:23:22.145Z,9.65
2019-03-26T16:25:52.877Z,10.55
2019-03-26T16:28:22.606Z,10.08
2019-03-26T16:30:52.451Z,10.03
2019-03-26T16:33:22.414Z,10.05
2019-03-26T16:35:52.161Z,10.10
2019-03-26T16:38:21.795Z,10.65
2019-03-26T16:40:51.349Z,12.75
2019-03-26T16:43:21.082Z,12.58
2019-03-26T16:45:50.698Z,12.68
2019-03-26T16:48:20.640Z,13.32
2019-03-26T16:50:50.418Z,11.18
2019-03-26T16:53:21.765Z,11.48
2019-03-26T16:55:52.267Z,12.55
2019-03-26T16:58:21.920Z,11.65
2019-03-26T17:00:51.833Z,12.55
2019-03-26T17:03:31.252Z,12.53
2019-03-26T17:05:53.198Z,12.90
2019-03-26T17:08:22.921Z,12.45
2019-03-26T17:10:52.418Z,12.28
2019-03-26T17:13:22.249Z,12.88
2019-03-26T17:15:51.949Z,12.60
2019-03-26T17:18:21.602Z,12.35
2019-03-26T17:20:51.350Z,16.77
2019-03-26T17:23:20.912Z,17.25
2019-03-26T17:25:50.411Z,13.45
2019-03-26T17:28:21.383Z,19.80
2019-03-26T17:30:50.869Z,15.75
2019-03-26T17:33:20.706Z,13.20
2019-03-26T17:35:50.428Z,14.35
2019-03-26T17:38:19.941Z,31.40
2019-03-26T17:40:49.388Z,36.48
2019-03-26T17:43:18.850Z,17.73
2019-03-26T17:45:48.283Z,21.00
2019-03-26T17:48:17.935Z,19.02
2019-03-26T17:50:48.031Z,13.05
2019-03-26T17:53:17.789Z,12.13
2019-03-26T17:55:47.526Z,12.90
2019-03-26T17:58:17.169Z,13.83
2019-03-26T18:00:47.399Z,14.43
2019-03-26T18:03:26.361Z,13.98
2019-03-26T18:05:48.609Z,15.30
2019-03-26T18:08:18.070Z,13.90
2019-03-26T18:10:47.840Z,14.20
2019-03-26T18:13:17.765Z,16.90
2019-03-26T18:15:48.992Z,13.80
2019-03-26T18:18:18.798Z,14.85
2019-03-26T18:20:48.444Z,15.13
2019-03-26T18:23:17.979Z,15.15
2019-03-26T18:25:47.455Z,16.27
2019-03-26T18:28:17.188Z,14.47
2019-03-26T18:30:46.914Z,12.25
2019-03-26T18:33:16.654Z,10.95
2019-03-26T18:35:46.282Z,9.65
2019-03-26T18:38:16.053Z,9.83
2019-03-26T18:40:47.139Z,10.03
2019-03-26T18:43:17.191Z,10.05
2019-03-26T18:45:46.746Z,10.18
2019-03-26T18:48:16.210Z,10.63
2019-03-26T18:50:46.036Z,13.25
2019-03-26T18:53:15.683Z,13.85
2019-03-26T18:55:45.391Z,13.83
2019-03-26T18:58:14.850Z,13.60
2019-03-26T19:00:44.586Z,12.58
2019-03-26T19:03:14.133Z,12.73
2019-03-26T19:05:43.934Z,12.80
2019-03-26T19:08:13.675Z,12.60
2019-03-26T19:10:43.423Z,11.95
2019-03-26T19:13:19.157Z,12.65
2019-03-26T19:15:44.323Z,11.78
2019-03-26T19:18:13.761Z,12.07
2019-03-26T19:20:43.293Z,11.83
2019-03-26T19:23:12.728Z,12.37
2019-03-26T19:25:42.446Z,13.13
2019-03-26T19:28:11.979Z,12.98
2019-03-26T19:30:41.571Z,12.95
2019-03-26T19:33:10.935Z,12.30
2019-03-26T19:35:40.491Z,16.25
2019-03-26T19:38:10.303Z,15.43
2019-03-26T19:40:40.148Z,15.23
2019-03-26T19:43:11.517Z,14.68
2019-03-26T19:45:41.211Z,13.98
2019-03-26T19:48:11.069Z,13.43
2019-03-26T19:50:40.824Z,15.40
2019-03-26T19:53:10.708Z,14.00
2019-03-26T19:55:40.838Z,13.13
2019-03-26T19:58:11.968Z,13.98
2019-03-26T20:00:42.069Z,13.38
2019-03-26T20:03:11.810Z,12.65
2019-03-26T20:05:41.714Z,11.73
2019-03-26T20:08:11.151Z,11.48
2019-03-26T20:10:40.694Z,12.30
2019-03-26T20:13:23.261Z,11.95
2019-03-26T20:15:41.953Z,12.07
2019-03-26T20:18:11.762Z,12.07
2019-03-26T20:20:41.607Z,10.53
2019-03-26T20:23:11.292Z,12.03
2019-03-26T20:25:40.755Z,11.30
2019-03-26T20:28:10.188Z,11.97
2019-03-26T20:30:39.851Z,11.48
2019-03-26T20:33:09.424Z,12.88
2019-03-26T20:35:38.873Z,11.12
2019-03-26T20:38:08.537Z,11.75
2019-03-26T20:40:38.252Z,12.33
2019-03-26T20:43:07.881Z,11.80
2019-03-26T20:45:37.367Z,11.75
2019-03-26T20:48:07.206Z,11.00
2019-03-26T20:50:36.671Z,10.90
2019-03-26T20:53:06.154Z,12.10
2019-03-26T20:55:36.445Z,11.95
2019-03-26T20:58:06.321Z,11.55
2019-03-26T21:00:37.709Z,12.28
2019-03-26T21:03:07.430Z,12.37
2019-03-26T21:05:37.858Z,12.10
2019-03-26T21:08:07.573Z,11.93
2019-03-26T21:10:37.095Z,12.18
2019-03-26T21:13:06.967Z,12.43
2019-03-26T21:15:36.422Z,13.53
2019-03-26T21:18:06.081Z,12.30
2019-03-26T21:20:35.647Z,13.93
2019-03-26T21:23:05.040Z,13.53
2019-03-26T21:25:34.792Z,12.75
2019-03-26T21:28:04.376Z,13.68
2019-03-26T21:30:33.918Z,12.35
2019-03-26T21:33:04.416Z,13.50
2019-03-26T21:35:34.136Z,12.33
2019-03-26T21:38:06.621Z,13.03
2019-03-26T21:40:36.354Z,12.65
2019-03-26T21:43:06.050Z,12.70
2019-03-26T21:45:39.810Z,12.75
2019-03-26T21:48:10.682Z,12.20
2019-03-26T21:50:40.334Z,12.58
2019-03-26T21:53:10.911Z,12.68
2019-03-26T21:55:40.742Z,13.35
2019-03-26T21:58:10.176Z,14.03
2019-03-26T22:00:39.827Z,13.32
2019-03-26T22:03:09.663Z,12.47
2019-03-26T22:05:39.367Z,12.07
2019-03-26T22:08:09.074Z,13.62
2019-03-26T22:10:38.787Z,12.75
2019-03-26T22:13:08.354Z,13.25
2019-03-26T22:15:37.998Z,12.88
2019-03-26T22:18:07.812Z,13.43
2019-03-26T22:20:37.255Z,14.33
2019-03-26T22:23:08.358Z,13.93
2019-03-26T22:25:39.072Z,13.62
2019-03-26T22:28:08.568Z,12.33
2019-03-26T22:30:38.316Z,15.05
2019-03-26T22:33:07.722Z,13.78
2019-03-26T22:35:37.240Z,14.40
2019-03-26T22:38:06.670Z,13.90
2019-03-26T22:40:36.317Z,14.05
2019-03-26T22:43:05.749Z,13.62
2019-03-26T22:45:35.470Z,13.35
2019-03-26T22:48:05.272Z,13.70
2019-03-26T22:50:34.734Z,13.98
2019-03-26T22:53:04.866Z,13.53
2019-03-26T22:55:34.950Z,13.85
2019-03-26T22:58:04.397Z,14.10
2019-03-26T23:00:35.840Z,14.53
2019-03-26T23:03:05.332Z,15.03
2019-03-26T23:05:36.348Z,14.68
2019-03-26T23:08:06.067Z,15.05
2019-03-26T23:10:35.787Z,15.20
2019-03-26T23:13:05.427Z,15.65
2019-03-26T23:15:34.997Z,15.00
2019-03-26T23:18:04.543Z,14.53
2019-03-26T23:20:34.327Z,16.25
2019-03-26T23:23:04.128Z,16.07
2019-03-26T23:25:33.902Z,16.23
2019-03-26T23:28:03.657Z,16.07
2019-03-26T23:30:33.378Z,15.85
2019-03-26T23:33:03.001Z,16.32
2019-03-26T23:35:32.758Z,15.25
2019-03-26T23:38:02.498Z,17.15
2019-03-26T23:40:32.140Z,14.90
2019-03-26T23:43:01.899Z,15.20
2019-03-26T23:45:31.616Z,14.47
2019-03-26T23:48:01.328Z,15.90
2019-03-26T23:50:31.213Z,17.07
2019-03-26T23:53:00.748Z,18.10
2019-03-26T23:55:30.586Z,17.32
2019-03-26T23:58:00.378Z,16.42
